• Join FlightAware (Why Join?)
  • Login
  • US Flag 
Rudolph Flight #1: Scheduled 
11:10PM EST


 

Airport Tracker/Info


-or-


 

Live Flight TrackerFlight Track Log ✈ RPA4901 ✈ 2013年 04月 27日 ✈ KRDU - KEWR

Flight Track Log - Related Links

Times and Time Zones

All times are in EDT time to prevent confusion due to time zone crossing. See the RPA4901 flight status page for this flight to view local times or setup timezone preferences in your user account.

Time Position Orientation Groundspeed Altitude Reporting Facility
EDT Latitude Longitude Course Direction KTS MPH feet Rate Location/Type
07:33AM 35.9031 -78.7717 39° Northeast 196 226 1,400  Level Washington Center
07:34AM 35.9519 -78.7403 27° Northeast 223 257 3,100 2,100 Climbing Washington Center
07:35AM 36.0239 -78.7022 23° Northeast 234 269 5,900 2,280 Climbing Washington Center
07:36AM 36.0935 -78.5663 32° Northeast  Level FlightAware Approximate
07:36AM 36.0772 -78.6606 32° Northeast 236 272 8,200  Level Washington Center
07:37AM 36.1750 -78.5028 32° Northeast  Level FlightAware Approximate
07:37AM 36.1286 -78.6086 39° Northeast 231 266 10,500  Level Washington Center
07:38AM 36.2520 -78.4314 39° Northeast  Level FlightAware Approximate
07:38AM 36.1778 -78.5614 38° Northeast 231 266 12,600  Level Washington Center
07:39AM 36.3270 -78.3564 39° Northeast  Level FlightAware Approximate
07:39AM 36.2247 -78.5117 41° Northeast 231 266 14,400  Level Washington Center
07:40AM 36.2847 -78.4497 40° Northeast 242 278 16,100 1,260 Climbing Washington Center
07:41AM 36.3361 -78.3972 39° Northeast 247 284 17,000 420 Climbing Washington Center
07:42AM 36.4086 -78.3250 39° Northeast 276 318 17,000  Level Washington Center
07:43AM 36.4814 -78.2503 40° Northeast 312 359 17,000 540 Level Washington Center
07:44AM 36.5558 -78.1778 38° Northeast 325 374 18,100 1,020 Climbing Washington Center
07:45AM 36.6158 -78.1125 41° Northeast 331 381 19,100 960 Climbing Washington Center
07:46AM 36.6839 -78.0419 40° Northeast 331 381 20,100 900 Climbing Washington Center
07:47AM 36.7522 -77.9692 40° Northeast 325 374 20,900 780 Climbing Washington Center
07:48AM 36.8203 -77.8986 40° Northeast 320 368 21,700 780 Climbing Washington Center
07:49AM 36.8967 -77.8358 33° Northeast 320 368 22,500 600 Climbing Washington Center
07:50AM 36.9728 -77.7731 33° Northeast 325 374 23,000 240 Climbing Washington Center
07:51AM 37.0511 -77.7075 34° Northeast 325 374 23,000  Level Washington Center
07:52AM 37.1317 -77.6369 35° Northeast 337 388 23,000  Level Washington Center
07:53AM 37.2164 -77.5661 34° Northeast 350 403 23,000  Level Washington Center
07:54AM 37.3008 -77.4953 34° Northeast 355 409 23,000  Level Washington Center
07:55AM 37.3875 -77.4214 34° Northeast 361 415 23,000  Level Washington Center
07:56AM 37.4742 -77.3450 35° Northeast 366 421 23,000  Level Washington Center
07:57AM 37.5567 -77.2658 37° Northeast 366 421 23,000  Level Washington Center
07:58AM 37.6414 -77.1783 39° Northeast 371 427 23,000  Level Washington Center
07:59AM 37.7303 -77.0858 39° Northeast 376 433 23,000 -420 Level Washington Center
08:00AM 37.8144 -77.0114 35° Northeast 376 433 22,200 -1,200 Descending Washington Center
08:01AM 37.9008 -76.9392 33° Northeast 365 420 20,700 -1,500 Descending Washington Center
08:02AM 37.9808 -76.8669 35° Northeast 365 420 19,200 -900 Descending Washington Center
08:03AM 38.0544 -76.8022 35° Northeast 365 420 19,000 -120 Descending Washington Center
08:04AM 38.1344 -76.7269 36° Northeast 360 414 19,000  Level Washington Center
08:05AM 38.2164 -76.6567 34° Northeast 360 414 19,000  Level Washington Center
08:06AM 38.2964 -76.5839 36° Northeast 360 414 19,000 -480 Level Washington Center
08:07AM 38.3781 -76.5133 34° Northeast 360 414 18,100 -1,440 Descending Washington Center
08:08AM 38.4581 -76.4428 35° Northeast 360 414 16,200 -1,860 Descending Washington Center
08:09AM 38.5314 -76.3747 36° Northeast 343 395 14,500 -1,560 Descending Washington Center
08:10AM 38.6047 -76.3117 34° Northeast 330 380 13,100 -780 Descending Washington Center
08:11AM 38.6883 -76.2806 16° North 314 361 13,000 -480 Descending Washington Center
08:12AM 38.7739 -76.2442 18° North 308 354 12,200 -960 Descending Washington Center
08:13AM 38.8556 -76.1994 23° Northeast 308 354 11,100 -600 Descending Washington Center
08:14AM 38.9392 -76.1494 25° Northeast 310 357 11,000 -60 Descending Washington Center
08:15AM 39.0164 -76.1019 26° Northeast 315 362 11,000  Level Washington Center
08:16AM 39.0981 -76.0569 23° Northeast 315 362 11,000  Level Washington Center
08:17AM 39.1772 -76.0119 24° Northeast 315 362 11,000  Level Washington Center
08:18AM 39.2589 -75.9642 24° Northeast 315 362 11,000  Level Washington Center
08:21AM 39.4667 -75.8500 23° Northeast 307 353 11,000  Level Philadelphia TRACON
08:22AM 39.5333 -75.7833 38° Northeast 309 356 11,000  Level Philadelphia TRACON
08:23AM 39.6000 -75.7167 38° Northeast 307 353 11,000 -60 Level Philadelphia TRACON
08:24AM 39.6500 -75.6333 52° Northeast 306 352 10,900 -420 Descending Philadelphia TRACON
08:25AM 39.7000 -75.5333 57° Northeast 311 358 10,200 -660 Descending Philadelphia TRACON
08:26AM 39.7167 -75.4500 75° East 275 316 9,600 -600 Descending Philadelphia TRACON
08:27AM 39.7500 -75.3500 67° East 279 321 9,000 -300 Descending Philadelphia TRACON
08:28AM 39.7833 -75.2667 62° Northeast 279 321 9,000  Level Philadelphia TRACON
08:29AM 39.8000 -75.1667 78° East 277 319 9,000 -180 Level Philadelphia TRACON
08:30AM 39.8333 -75.0667 67° East 273 314 8,700 -600 Descending Philadelphia TRACON
08:31AM 39.8667 -74.9833 62° Northeast 257 296 7,900 -720 Descending Philadelphia TRACON
08:32AM 39.9167 -74.9167 46° Northeast 260 299 7,300 -420 Descending Philadelphia TRACON
08:33AM 39.9667 -74.8333 52° Northeast 255 293 7,000 -180 Descending New York TRACON
08:34AM 40.0167 -74.7667 46° Northeast 257 296 7,000  Level New York TRACON
08:35AM 40.0500 -74.7000 57° Northeast 249 287 7,000  Level New York TRACON
08:36AM 40.1000 -74.6333 46° Northeast 250 288 7,000  Level New York TRACON
08:37AM 40.1500 -74.5667 46° Northeast 257 296 7,000  Level New York TRACON
08:38AM 40.2000 -74.5000 46° Northeast 258 297 7,000 -360 Level New York TRACON
08:39AM 40.2500 -74.4500 37° Northeast 245 282 6,400 -840 Descending New York TRACON
08:40AM 40.3000 -74.4167 27° Northeast 227 261 5,500 -960 Descending New York TRACON
08:41AM 40.3667 -74.3667 30° Northeast 245 282 4,600 -1,020 Descending New York TRACON
08:42AM 40.4167 -74.3333 27° Northeast 245 282 3,600 -840 Descending New York TRACON
08:43AM 40.4833 -74.3000 21° North 237 273 3,100 -300 Descending New York TRACON
08:44AM 40.5333 -74.2667 27° Northeast 204 235 3,100 -420 Level New York TRACON
08:45AM 40.5833 -74.2333 27° Northeast 185 213 2,400 -720 Descending New York TRACON